createdAt,value
2022-12-09T00:01:08.201Z,3.94
2022-12-09T00:03:36.596Z,3.92
2022-12-09T00:06:08.805Z,3.94
2022-12-09T00:08:37.563Z,3.91
2022-12-09T00:11:06.773Z,3.92
2022-12-09T00:13:36.199Z,3.93
2022-12-09T00:16:07.188Z,3.94
2022-12-09T00:18:35.407Z,3.92
2022-12-09T00:21:12.921Z,3.93
2022-12-09T00:23:40.934Z,3.91
2022-12-09T00:26:09.024Z,3.92
2022-12-09T00:28:38.600Z,3.92
2022-12-09T00:31:07.591Z,3.92
2022-12-09T00:33:36.569Z,3.91
2022-12-09T00:36:06.755Z,3.92
2022-12-09T00:38:34.732Z,3.90
2022-12-09T00:41:02.833Z,3.89
2022-12-09T00:43:30.764Z,3.90
2022-12-09T00:46:00.302Z,3.90
2022-12-09T00:48:29.363Z,3.90
2022-12-09T00:50:57.347Z,3.89
2022-12-09T00:53:25.444Z,3.89
2022-12-09T00:55:53.430Z,3.88
2022-12-09T00:58:21.764Z,3.89
2022-12-09T01:00:49.577Z,3.88
2022-12-09T01:03:21.976Z,3.89
2022-12-09T01:05:49.992Z,3.87
2022-12-09T01:08:19.320Z,3.88
2022-12-09T01:10:47.680Z,3.89
2022-12-09T01:13:16.496Z,3.89
2022-12-09T01:15:44.634Z,3.88
2022-12-09T01:18:13.566Z,3.88
2022-12-09T01:20:42.892Z,3.88
2022-12-09T01:23:11.526Z,3.87
2022-12-09T01:25:39.484Z,3.88
2022-12-09T01:28:07.338Z,3.87
2022-12-09T01:30:35.438Z,3.87
2022-12-09T01:33:03.305Z,3.87
2022-12-09T01:35:31.567Z,3.87
2022-12-09T01:38:01.700Z,3.89
2022-12-09T01:40:29.859Z,3.87
2022-12-09T01:42:57.655Z,3.87
2022-12-09T01:45:40.146Z,3.89
2022-12-09T01:48:14.183Z,3.87
2022-12-09T01:50:50.257Z,3.87
2022-12-09T01:53:22.694Z,3.86
2022-12-09T01:55:51.725Z,3.86
2022-12-09T01:58:20.327Z,3.88
2022-12-09T02:00:48.892Z,3.87
2022-12-09T02:03:17.301Z,3.88
2022-12-09T02:05:46.336Z,3.89
2022-12-09T02:08:16.265Z,3.88
2022-12-09T02:10:57.320Z,3.90
2022-12-09T02:13:33.187Z,3.89
2022-12-09T02:16:06.370Z,3.88
2022-12-09T02:18:37.958Z,3.65
2022-12-09T02:21:11.263Z,3.86
2022-12-09T02:23:42.492Z,3.86
2022-12-09T02:26:23.595Z,3.89
2022-12-09T02:29:18.632Z,3.89
2022-12-09T02:32:06.133Z,3.88
2022-12-09T02:34:38.785Z,3.88
2022-12-09T02:37:12.024Z,3.87
2022-12-09T02:39:47.412Z,3.88
2022-12-09T02:42:19.878Z,3.88
2022-12-09T02:44:51.608Z,3.88
2022-12-09T02:47:26.614Z,3.86
2022-12-09T02:50:01.580Z,3.88
2022-12-09T02:52:32.973Z,3.87
2022-12-09T02:55:04.820Z,3.85
2022-12-09T02:57:36.030Z,3.84
2022-12-09T03:00:07.290Z,3.82
2022-12-09T03:02:37.795Z,3.83
2022-12-09T03:05:17.809Z,3.82
2022-12-09T03:07:55.850Z,3.81
2022-12-09T03:10:29.171Z,3.80
2022-12-09T03:13:03.836Z,3.79
2022-12-09T03:15:35.434Z,3.77
2022-12-09T03:18:07.290Z,3.77
2022-12-09T03:20:40.849Z,3.78
2022-12-09T03:23:11.550Z,3.77
2022-12-09T03:25:44.048Z,3.75
2022-12-09T03:28:17.232Z,3.73
2022-12-09T03:30:46.702Z,3.74
2022-12-09T03:33:18.826Z,3.74
2022-12-09T03:35:53.007Z,3.73
2022-12-09T03:38:23.495Z,3.74
2022-12-09T03:40:54.765Z,3.73
2022-12-09T03:43:25.634Z,3.72
2022-12-09T03:45:56.802Z,3.72
2022-12-09T03:48:26.493Z,3.70
2022-12-09T03:51:00.527Z,3.73
2022-12-09T03:53:34.848Z,3.70
2022-12-09T03:56:08.396Z,3.70
2022-12-09T03:58:39.284Z,3.68
2022-12-09T04:01:07.965Z,3.68
2022-12-09T04:03:36.350Z,3.67
2022-12-09T04:06:06.338Z,3.67
2022-12-09T04:08:34.559Z,3.65
2022-12-09T04:11:02.365Z,3.65
2022-12-09T04:13:30.171Z,3.64
2022-12-09T04:15:58.679Z,3.64
2022-12-09T04:18:26.661Z,3.63
2022-12-09T04:20:54.590Z,3.63
2022-12-09T04:23:23.885Z,3.63
2022-12-09T04:25:51.801Z,3.62
2022-12-09T04:28:19.783Z,3.62
2022-12-09T04:30:47.886Z,3.61
2022-12-09T04:33:15.843Z,3.61
2022-12-09T04:35:43.723Z,3.60
2022-12-09T04:38:11.552Z,3.61
2022-12-09T04:40:40.983Z,3.61
2022-12-09T04:43:08.776Z,3.62
2022-12-09T04:45:37.843Z,3.62
2022-12-09T04:48:06.091Z,3.61
2022-12-09T04:50:34.068Z,3.61
2022-12-09T04:53:01.849Z,3.61
2022-12-09T04:55:31.245Z,3.61
2022-12-09T04:58:00.661Z,3.62
2022-12-09T05:00:28.570Z,3.60
2022-12-09T05:02:56.733Z,3.61
2022-12-09T05:05:25.023Z,3.60
2022-12-09T05:07:53.365Z,3.60
2022-12-09T05:10:21.502Z,3.59
2022-12-09T05:12:49.725Z,3.59
2022-12-09T05:15:20.151Z,3.60
2022-12-09T05:17:48.363Z,3.59
2022-12-09T05:20:16.510Z,3.58
2022-12-09T05:22:44.640Z,3.57
2022-12-09T05:25:12.693Z,3.57
2022-12-09T05:27:40.618Z,3.56
2022-12-09T05:30:10.138Z,3.56
2022-12-09T05:32:40.176Z,3.55
2022-12-09T05:35:08.801Z,3.54
2022-12-09T05:37:37.344Z,3.52
2022-12-09T05:40:07.065Z,3.52
2022-12-09T05:42:41.067Z,3.50
2022-12-09T05:45:11.080Z,3.48
2022-12-09T05:47:40.387Z,3.49
2022-12-09T05:50:10.037Z,3.47
2022-12-09T05:52:38.799Z,3.45
2022-12-09T05:55:09.466Z,3.44
2022-12-09T05:57:38.665Z,3.43
2022-12-09T06:00:08.268Z,3.40
2022-12-09T06:02:41.813Z,3.39
2022-12-09T06:05:11.062Z,3.36
2022-12-09T06:07:39.529Z,3.35
2022-12-09T06:10:08.716Z,3.33
2022-12-09T06:12:36.981Z,3.30
2022-12-09T06:15:08.054Z,3.29
2022-12-09T06:17:38.754Z,3.26
2022-12-09T06:20:09.675Z,3.27
2022-12-09T06:22:38.116Z,3.24
2022-12-09T06:25:06.734Z,3.23
2022-12-09T06:27:34.981Z,3.21
2022-12-09T06:30:04.036Z,3.20
2022-12-09T06:32:32.288Z,3.18
2022-12-09T06:35:00.679Z,3.17
2022-12-09T06:37:32.714Z,3.15
2022-12-09T06:40:00.851Z,3.11
2022-12-09T06:42:28.933Z,3.09
2022-12-09T06:44:56.961Z,3.06
2022-12-09T06:47:25.018Z,3.04
2022-12-09T06:49:53.649Z,3.02
2022-12-09T06:52:22.170Z,2.98
2022-12-09T06:54:51.810Z,2.96
2022-12-09T06:57:19.634Z,2.92
2022-12-09T06:59:47.622Z,2.87
2022-12-09T07:02:15.966Z,2.82
2022-12-09T07:04:44.464Z,2.77
2022-12-09T07:07:13.022Z,2.72
2022-12-09T07:09:41.235Z,2.67
2022-12-09T07:12:11.039Z,2.64
2022-12-09T07:14:39.274Z,2.60
2022-12-09T07:17:07.154Z,2.55
2022-12-09T07:19:35.562Z,2.52
2022-12-09T07:22:03.684Z,2.48
2022-12-09T07:24:31.619Z,2.45
2022-12-09T07:27:03.241Z,2.41
2022-12-09T07:29:37.842Z,2.37
2022-12-09T07:32:06.364Z,2.34
2022-12-09T07:34:34.845Z,2.32
2022-12-09T07:37:03.251Z,2.27
2022-12-09T07:39:31.275Z,2.25
2022-12-09T07:41:59.563Z,2.23
2022-12-09T07:44:31.228Z,2.20
2022-12-09T07:47:00.522Z,2.17
2022-12-09T07:49:29.047Z,2.15
2022-12-09T07:51:57.386Z,2.14
2022-12-09T07:54:25.319Z,2.12
2022-12-09T07:56:53.599Z,2.10
2022-12-09T07:59:21.720Z,2.08
2022-12-09T08:01:49.903Z,2.07
2022-12-09T08:04:19.436Z,2.07
2022-12-09T08:06:48.252Z,2.06
2022-12-09T08:09:16.810Z,2.04
2022-12-09T08:11:45.485Z,2.04
2022-12-09T08:14:14.121Z,2.04
2022-12-09T08:16:43.108Z,2.03
2022-12-09T08:19:12.345Z,2.03
2022-12-09T08:21:42.558Z,2.04
2022-12-09T08:24:13.731Z,2.04
2022-12-09T08:26:42.662Z,2.02
2022-12-09T08:29:14.025Z,2.04
2022-12-09T08:31:43.802Z,2.04
2022-12-09T08:34:12.602Z,2.02
2022-12-09T08:36:43.252Z,2.04
2022-12-09T08:39:12.387Z,2.03
2022-12-09T08:41:41.201Z,2.03
2022-12-09T08:44:11.366Z,2.04
2022-12-09T08:46:42.691Z,2.04
2022-12-09T08:49:11.141Z,2.02
2022-12-09T08:51:40.427Z,2.04
2022-12-09T08:54:09.928Z,2.04
2022-12-09T08:56:38.115Z,2.04
2022-12-09T08:59:06.188Z,2.04
2022-12-09T09:01:36.147Z,2.06
2022-12-09T09:04:07.910Z,2.09
2022-12-09T09:06:37.263Z,2.08
2022-12-09T09:09:06.034Z,2.09
2022-12-09T09:11:36.662Z,2.12
2022-12-09T09:14:06.745Z,2.13
2022-12-09T09:16:35.849Z,2.13
2022-12-09T09:19:06.140Z,2.15
2022-12-09T09:21:35.815Z,2.16
2022-12-09T09:24:04.579Z,2.16
2022-12-09T09:26:32.974Z,2.18
2022-12-09T09:29:02.186Z,2.20
2022-12-09T09:31:30.407Z,2.21
2022-12-09T09:33:58.831Z,2.22
2022-12-09T09:36:27.146Z,2.24
2022-12-09T09:38:57.458Z,2.26
2022-12-09T09:41:37.870Z,2.29
2022-12-09T09:44:18.501Z,2.31
2022-12-09T09:46:49.821Z,2.33
2022-12-09T09:49:21.579Z,2.34
2022-12-09T09:51:50.068Z,2.36
2022-12-09T09:54:18.125Z,2.37
2022-12-09T09:56:55.051Z,2.41
2022-12-09T09:59:38.329Z,2.43
2022-12-09T10:02:18.314Z,2.46
2022-12-09T10:04:57.326Z,2.47
2022-12-09T10:07:34.735Z,2.49
2022-12-09T10:10:12.044Z,2.51
2022-12-09T10:12:50.487Z,2.53
2022-12-09T10:15:25.004Z,2.54
2022-12-09T10:17:55.327Z,2.56
2022-12-09T10:20:27.604Z,2.56
2022-12-09T10:23:01.224Z,2.56
2022-12-09T10:25:31.949Z,2.57
2022-12-09T10:28:08.187Z,2.59
2022-12-09T10:30:44.167Z,2.59
2022-12-09T10:33:13.834Z,2.59
2022-12-09T10:35:42.543Z,2.60
2022-12-09T10:38:13.309Z,2.62
2022-12-09T10:40:55.120Z,2.66
2022-12-09T10:43:38.970Z,2.64
2022-12-09T10:46:20.972Z,2.67
2022-12-09T10:48:56.315Z,2.67
2022-12-09T10:51:27.204Z,2.69
2022-12-09T10:53:59.084Z,2.70
2022-12-09T10:56:29.914Z,2.70
2022-12-09T10:59:11.001Z,2.74
2022-12-09T11:01:52.954Z,2.73
2022-12-09T11:04:25.562Z,2.74
2022-12-09T11:06:59.498Z,2.53
2022-12-09T11:09:30.911Z,2.51
2022-12-09T11:12:00.044Z,2.49
2022-12-09T11:14:30.738Z,2.51
2022-12-09T11:17:00.697Z,2.53
2022-12-09T11:19:30.272Z,2.55
2022-12-09T11:22:14.394Z,2.57
2022-12-09T11:24:42.460Z,2.59
2022-12-09T11:27:25.006Z,2.60
2022-12-09T11:30:11.224Z,2.60
2022-12-09T11:32:53.797Z,2.62
2022-12-09T11:35:25.000Z,2.63
2022-12-09T11:37:52.965Z,2.66
2022-12-09T11:40:24.590Z,2.66
2022-12-09T11:42:59.212Z,2.68
2022-12-09T11:45:31.942Z,2.68
2022-12-09T11:48:30.266Z,2.68
2022-12-09T11:50:54.038Z,2.69
2022-12-09T11:53:29.320Z,2.70
2022-12-09T11:56:00.354Z,2.70
2022-12-09T11:58:35.507Z,2.72
2022-12-09T12:01:05.042Z,2.73
2022-12-09T12:03:37.332Z,2.75
2022-12-09T12:06:07.738Z,2.75
2022-12-09T12:08:38.670Z,2.77
2022-12-09T12:11:14.874Z,2.77
2022-12-09T12:13:47.176Z,2.80
2022-12-09T12:16:19.432Z,2.81
2022-12-09T12:18:51.390Z,2.83
2022-12-09T12:21:30.505Z,2.84
2022-12-09T12:24:16.635Z,2.86
2022-12-09T12:26:48.561Z,2.87
2022-12-09T12:29:28.002Z,2.87
2022-12-09T12:32:07.656Z,2.89
2022-12-09T12:34:41.459Z,2.89
2022-12-09T12:37:19.560Z,2.89
2022-12-09T12:39:52.302Z,2.88
2022-12-09T12:42:26.119Z,2.86
2022-12-09T12:45:29.471Z,2.86
2022-12-09T12:48:02.810Z,2.85
2022-12-09T12:50:51.831Z,2.83
2022-12-09T12:53:26.310Z,2.81
2022-12-09T12:55:59.005Z,2.81
2022-12-09T12:58:37.387Z,2.79
2022-12-09T13:01:07.181Z,2.80
2022-12-09T13:03:37.573Z,2.80
2022-12-09T13:06:10.201Z,2.79
2022-12-09T13:08:41.940Z,2.80
2022-12-09T13:11:12.909Z,2.78
2022-12-09T13:13:43.629Z,2.79
2022-12-09T13:16:16.876Z,2.79
2022-12-09T13:18:45.083Z,2.79
2022-12-09T13:21:14.674Z,2.80
2022-12-09T13:23:52.192Z,2.81
2022-12-09T13:26:25.145Z,2.82
2022-12-09T13:28:55.676Z,2.81
2022-12-09T13:31:26.047Z,2.82
2022-12-09T13:33:58.233Z,2.82
2022-12-09T13:36:36.494Z,2.81
2022-12-09T13:39:04.723Z,2.82
2022-12-09T13:42:03.137Z,2.81
2022-12-09T13:44:32.597Z,2.82
2022-12-09T13:47:18.990Z,2.83
2022-12-09T13:49:53.663Z,2.83
2022-12-09T13:52:36.201Z,2.84
2022-12-09T13:55:05.510Z,2.85
2022-12-09T13:57:39.170Z,2.87
2022-12-09T14:00:08.468Z,2.87
2022-12-09T14:02:40.014Z,2.90
2022-12-09T14:05:08.954Z,2.91
2022-12-09T14:07:39.367Z,2.92
2022-12-09T14:10:30.644Z,2.93
2022-12-09T14:13:17.148Z,2.93
2022-12-09T14:15:46.228Z,2.93
2022-12-09T14:18:31.280Z,2.94
2022-12-09T14:21:17.934Z,2.94
2022-12-09T14:24:00.574Z,2.92
2022-12-09T14:26:36.330Z,2.92
2022-12-09T14:29:04.144Z,2.92
2022-12-09T14:31:52.288Z,2.94
2022-12-09T14:34:28.358Z,2.92
2022-12-09T14:37:01.238Z,2.92
2022-12-09T14:39:32.012Z,2.93
2022-12-09T14:42:03.888Z,2.93
2022-12-09T14:44:33.917Z,2.94
2022-12-09T14:47:13.619Z,2.94
2022-12-09T14:49:48.317Z,2.94
2022-12-09T14:52:18.332Z,2.95
2022-12-09T14:54:47.281Z,2.95
2022-12-09T14:57:21.221Z,2.95
2022-12-09T14:59:50.249Z,2.95
2022-12-09T15:02:20.527Z,2.94
2022-12-09T15:04:49.668Z,2.93
2022-12-09T15:07:18.708Z,2.93
2022-12-09T15:09:54.525Z,2.91
2022-12-09T15:12:26.269Z,2.90
2022-12-09T15:14:56.159Z,2.88
2022-12-09T15:17:25.738Z,2.87
2022-12-09T15:20:01.651Z,2.85
2022-12-09T15:22:32.298Z,2.83
2022-12-09T15:25:02.391Z,2.81
2022-12-09T15:27:31.771Z,2.78
2022-12-09T15:29:59.463Z,2.78
2022-12-09T15:32:28.304Z,2.76
2022-12-09T15:34:56.068Z,2.74
2022-12-09T15:37:26.294Z,2.73
2022-12-09T15:39:56.789Z,2.71
2022-12-09T15:42:27.651Z,2.70
2022-12-09T15:45:00.202Z,2.68
2022-12-09T15:47:30.032Z,2.67
2022-12-09T15:50:00.770Z,2.64
2022-12-09T15:52:30.914Z,2.62
2022-12-09T15:55:00.099Z,2.60
2022-12-09T15:57:29.196Z,2.59
2022-12-09T16:00:00.169Z,2.57
2022-12-09T16:02:33.352Z,2.56
2022-12-09T16:05:03.532Z,2.54
2022-12-09T16:07:32.804Z,2.53
2022-12-09T16:10:02.338Z,2.50
2022-12-09T16:12:32.518Z,2.48
2022-12-09T16:15:01.737Z,2.47
2022-12-09T16:17:31.451Z,2.44
2022-12-09T16:19:59.772Z,2.44
2022-12-09T16:22:29.586Z,2.42
2022-12-09T16:25:16.586Z,2.39
2022-12-09T16:27:45.885Z,2.39
2022-12-09T16:30:17.848Z,2.37
2022-12-09T16:32:46.985Z,2.36
2022-12-09T16:35:21.337Z,2.33
2022-12-09T16:38:15.029Z,2.32
2022-12-09T16:41:00.697Z,2.30
2022-12-09T16:43:30.426Z,2.29
2022-12-09T16:46:00.785Z,2.27
2022-12-09T16:48:29.294Z,2.26
2022-12-09T16:50:58.508Z,2.25
2022-12-09T16:53:28.224Z,2.24
2022-12-09T16:55:56.798Z,2.23
2022-12-09T16:58:24.487Z,2.23
2022-12-09T17:00:52.212Z,2.24
2022-12-09T17:03:24.127Z,2.23
2022-12-09T17:05:51.856Z,2.22
2022-12-09T17:08:19.776Z,2.22
2022-12-09T17:10:47.533Z,2.21
2022-12-09T17:13:15.244Z,2.22
2022-12-09T17:15:43.218Z,2.21
2022-12-09T17:18:11.665Z,2.22
2022-12-09T17:20:40.779Z,2.22
2022-12-09T17:23:08.388Z,2.22
2022-12-09T17:25:36.102Z,2.22
2022-12-09T17:28:04.948Z,2.23
2022-12-09T17:30:32.653Z,2.23
2022-12-09T17:33:00.609Z,2.25
2022-12-09T17:35:28.672Z,2.25
2022-12-09T17:37:58.007Z,2.25
2022-12-09T17:40:26.967Z,2.25
2022-12-09T17:42:54.758Z,2.25
2022-12-09T17:45:22.513Z,2.25
2022-12-09T17:47:50.264Z,2.26
2022-12-09T17:50:17.988Z,2.26
2022-12-09T17:52:45.602Z,2.25
2022-12-09T17:55:16.924Z,2.25
2022-12-09T17:57:49.920Z,2.25
2022-12-09T18:00:21.805Z,2.26
2022-12-09T18:02:49.509Z,2.25
2022-12-09T18:05:19.749Z,2.26
2022-12-09T18:07:47.437Z,2.28
2022-12-09T18:10:16.844Z,2.27
2022-12-09T18:12:44.559Z,2.27
2022-12-09T18:15:12.331Z,2.28
2022-12-09T18:17:40.290Z,2.28
2022-12-09T18:20:08.772Z,2.28
2022-12-09T18:22:36.647Z,2.29
2022-12-09T18:25:04.483Z,2.29
2022-12-09T18:27:33.821Z,2.30
2022-12-09T18:30:01.653Z,2.29
2022-12-09T18:32:35.762Z,2.29
2022-12-09T18:35:04.235Z,2.29
2022-12-09T18:37:32.205Z,2.28
2022-12-09T18:40:00.177Z,2.28
2022-12-09T18:42:27.989Z,2.28
2022-12-09T18:44:57.531Z,2.28
2022-12-09T18:47:25.300Z,2.28
2022-12-09T18:49:53.573Z,2.26
2022-12-09T18:52:21.393Z,2.27
2022-12-09T18:54:49.378Z,2.25
2022-12-09T18:57:17.961Z,2.24
2022-12-09T18:59:45.840Z,2.24
2022-12-09T19:02:14.877Z,2.23
2022-12-09T19:04:42.685Z,2.24
2022-12-09T19:07:13.283Z,2.22
2022-12-09T19:09:41.964Z,2.23
2022-12-09T19:12:45.774Z,2.24
2022-12-09T19:14:58.196Z,2.24
2022-12-09T19:17:27.226Z,2.24
2022-12-09T19:19:54.847Z,2.23
2022-12-09T19:22:22.500Z,2.22
2022-12-09T19:24:50.191Z,2.22
2022-12-09T19:27:18.135Z,2.22
2022-12-09T19:29:45.954Z,2.21
2022-12-09T19:32:36.457Z,2.19
2022-12-09T19:35:02.641Z,2.18
2022-12-09T19:37:30.297Z,2.17
2022-12-09T19:39:57.985Z,2.15
2022-12-09T19:42:25.617Z,2.12
2022-12-09T19:45:01.296Z,2.10
2022-12-09T19:47:30.584Z,2.09
2022-12-09T19:49:58.634Z,2.05
2022-12-09T19:52:27.805Z,2.03
2022-12-09T19:54:55.458Z,2.02
2022-12-09T19:57:23.627Z,2.00
2022-12-09T19:59:51.471Z,1.97
2022-12-09T20:02:19.594Z,1.92
2022-12-09T20:04:49.644Z,1.88
2022-12-09T20:07:18.458Z,1.86
2022-12-09T20:09:47.553Z,1.82
2022-12-09T20:12:15.530Z,1.81
2022-12-09T20:14:46.199Z,1.78
2022-12-09T20:17:14.205Z,1.76
2022-12-09T20:19:41.859Z,1.75
2022-12-09T20:22:10.108Z,1.73
2022-12-09T20:24:38.033Z,1.71
2022-12-09T20:27:07.141Z,1.70
2022-12-09T20:29:37.915Z,1.68
2022-12-09T20:32:06.564Z,1.68
2022-12-09T20:34:34.300Z,1.67
2022-12-09T20:37:02.362Z,1.66
2022-12-09T20:39:30.059Z,1.66
2022-12-09T20:41:57.743Z,1.66
2022-12-09T20:44:26.783Z,1.65
2022-12-09T20:46:54.488Z,1.65
2022-12-09T20:49:26.629Z,1.65
2022-12-09T20:51:54.759Z,1.66
2022-12-09T20:54:22.444Z,1.66
2022-12-09T20:56:50.315Z,1.65
2022-12-09T20:59:18.320Z,1.66
2022-12-09T21:01:47.805Z,1.66
2022-12-09T21:04:16.176Z,1.66
2022-12-09T21:06:43.922Z,1.66
2022-12-09T21:09:13.981Z,1.66
2022-12-09T21:11:42.030Z,1.66
2022-12-09T21:14:09.677Z,1.66
2022-12-09T21:16:39.085Z,1.66
2022-12-09T21:19:10.437Z,1.66
2022-12-09T21:21:40.217Z,1.66
2022-12-09T21:24:08.563Z,1.66
2022-12-09T21:26:36.578Z,1.66
2022-12-09T21:29:04.257Z,1.65
2022-12-09T21:31:51.405Z,1.66
2022-12-09T21:34:21.461Z,1.65
2022-12-09T21:36:49.693Z,1.65
2022-12-09T21:39:17.459Z,1.65
2022-12-09T21:41:45.093Z,1.65
2022-12-09T21:44:15.124Z,1.65
2022-12-09T21:46:43.114Z,1.65
2022-12-09T21:49:10.877Z,1.64
2022-12-09T21:51:39.892Z,1.64
2022-12-09T21:54:07.706Z,1.63
2022-12-09T21:56:36.885Z,1.63
2022-12-09T21:59:05.785Z,1.62
2022-12-09T22:01:34.635Z,1.62
2022-12-09T22:04:03.744Z,1.60
2022-12-09T22:06:34.724Z,1.59
2022-12-09T22:09:06.447Z,1.60
2022-12-09T22:11:35.837Z,1.58
2022-12-09T22:14:04.068Z,1.58
2022-12-09T22:16:33.339Z,1.58
2022-12-09T22:19:01.909Z,1.57
2022-12-09T22:21:31.493Z,1.58
2022-12-09T22:24:02.886Z,1.57
2022-12-09T22:26:32.688Z,1.57
2022-12-09T22:29:00.697Z,1.55
2022-12-09T22:31:29.352Z,1.56
2022-12-09T22:33:59.810Z,1.55
2022-12-09T22:36:27.800Z,1.54
2022-12-09T22:38:55.743Z,1.54
2022-12-09T22:41:24.479Z,1.54
2022-12-09T22:43:54.535Z,1.53
2022-12-09T22:46:23.590Z,1.54
2022-12-09T22:48:51.812Z,1.53
2022-12-09T22:51:20.894Z,1.53
2022-12-09T22:53:48.817Z,1.52
2022-12-09T22:56:16.995Z,1.51
2022-12-09T22:58:44.646Z,1.51
2022-12-09T23:01:14.353Z,1.51
2022-12-09T23:03:42.554Z,1.51
2022-12-09T23:06:10.911Z,1.51
2022-12-09T23:08:39.777Z,1.49
2022-12-09T23:11:09.055Z,1.49
2022-12-09T23:13:41.119Z,1.48
2022-12-09T23:16:12.669Z,1.47
2022-12-09T23:18:42.346Z,1.46
2022-12-09T23:21:11.685Z,1.46
2022-12-09T23:23:39.664Z,1.47
2022-12-09T23:26:08.064Z,1.46
2022-12-09T23:28:37.012Z,1.46
2022-12-09T23:31:05.603Z,1.44
2022-12-09T23:33:34.498Z,1.44
2022-12-09T23:36:07.702Z,1.42
2022-12-09T23:38:35.563Z,1.43
2022-12-09T23:41:03.519Z,1.41
2022-12-09T23:43:31.327Z,1.39
2022-12-09T23:46:00.877Z,1.38
2022-12-09T23:48:30.895Z,1.36
2022-12-09T23:51:00.228Z,1.35
2022-12-09T23:53:29.500Z,1.33
2022-12-09T23:55:57.081Z,1.31
2022-12-09T23:58:24.742Z,1.29
